Time;durP1;ratioP1;P1;durP2;ratioP2;P2;SDS_P1;SDS_P2;PMS_P1;PMS_P2;Temp;Humidity;BMP_temperature;BMP_pressure;BME280_temperature;BME280_humidity;BME280_pressure;Samples;Min_cycle;Max_cycle;Signal;HPM_P1;HPM_P2
2021/10/12 00:01:36;;;;;;;;;;;;;;;6.67;56.96;96207.91;5025273;28;19921;-67
2021/10/12 00:04:01;;;;;;;;;;;;;;;5.92;58.87;96203.81;5024860;28;20023;-67
2021/10/12 00:06:27;;;;;;;;;;;;;;;6.56;57.42;96202.75;5025171;28;20271;-67
2021/10/12 00:08:52;;;;;;;;;;;;;;;6.67;56.64;96196.47;5023846;28;19928;-65
2021/10/12 00:11:17;;;;;;;;;;;;;;;6.29;58.23;96198.91;5022299;28;19929;-66
2021/10/12 00:13:43;;;;;;;;;;;;;;;6.33;57.65;96192.38;5017076;28;20294;-66
2021/10/12 00:16:08;;;;;;;;;;;;;;;6.64;56.67;96201.06;5020453;28;19971;-66
2021/10/12 00:18:33;;;;;;;;;;;;;;;6.79;56.36;96190.06;5021103;28;20218;-65
2021/10/12 00:20:58;;;;;;;;;;;;;;;6.83;56.46;96180.84;5020589;28;20287;-65
2021/10/12 00:23:24;;;;;;;;;;;;;;;6.44;57.11;96189.63;5020556;28;19917;-66
2021/10/12 00:25:49;;;;;;;;;;;;;;;6.69;56.38;96189.22;5020737;28;20468;-66
2021/10/12 00:28:14;;;;;;;;;;;;;;;6.12;58.86;96174.78;5019251;28;19991;-67
2021/10/12 00:30:40;;;;;;;;;;;;;;;5.94;59.23;96182.53;5019941;28;20085;-66
2021/10/12 00:33:05;;;;;;;;;;;;;;;5.96;59.93;96184.06;5020432;28;19959;-67
2021/10/12 00:35:30;;;;;;;;;;;;;;;6.14;58.80;96178.13;5020814;28;19975;-67
2021/10/12 00:37:55;;;;;;;;;;;;;;;6.45;57.84;96180.69;5021587;28;19928;-67
2021/10/12 00:40:21;;;;;;;;;;;;;;;5.47;61.11;96181.25;5020903;28;19921;-67
2021/10/12 00:42:46;;;;;;;;;;;;;;;5.70;60.57;96179.28;5020140;28;19924;-67
2021/10/12 00:45:11;;;;;;;;;;;;;;;5.27;62.23;96175.06;5020786;28;19951;-67
2021/10/12 00:47:37;;;;;;;;;;;;;;;5.61;60.61;96169.50;5020927;28;19921;-67
2021/10/12 00:50:03;;;;;;;;;;;;;;;5.13;62.67;96176.22;5021072;28;19960;-67
2021/10/12 00:52:28;;;;;;;;;;;;;;;5.30;62.18;96167.69;5019197;28;19924;-67
2021/10/12 00:54:54;;;;;;;;;;;;;;;5.28;61.86;96168.78;5019096;28;20306;-67
2021/10/12 00:57:19;;;;;;;;;;;;;;;5.47;60.79;96163.59;5021189;28;19923;-67
2021/10/12 00:59:45;;;;;;;;;;;;;;;5.40;61.36;96162.47;5020810;28;19960;-67
2021/10/12 01:02:10;;;;;;;;;;;;;;;5.65;60.39;96149.78;5019293;28;19917;-67
2021/10/12 01:04:36;;;;;;;;;;;;;;;6.02;59.48;96145.69;5020359;28;20002;-65
2021/10/12 01:07:01;;;;;;;;;;;;;;;5.61;60.63;96143.91;5020802;28;19921;-66
2021/10/12 01:09:26;;;;;;;;;;;;;;;5.70;60.78;96141.44;5021032;28;19913;-67
2021/10/12 01:11:51;;;;;;;;;;;;;;;5.65;60.74;96139.22;5020047;28;19921;-69
2021/10/12 01:14:17;;;;;;;;;;;;;;;5.70;60.08;96138.78;5019523;28;19991;-67
2021/10/12 01:16:42;;;;;;;;;;;;;;;5.66;60.75;96125.03;5020099;28;19933;-67
2021/10/12 01:19:08;;;;;;;;;;;;;;;5.56;60.11;96130.28;5020565;28;19980;-67
2021/10/12 01:21:40;;;;;;;;;;;;;;;5.53;60.20;96113.84;5020649;28;20386;-67
2021/10/12 01:24:05;;;;;;;;;;;;;;;5.60;59.95;96115.84;5020628;28;20573;-67
2021/10/12 01:26:30;;;;;;;;;;;;;;;5.99;58.48;96108.97;5020739;28;19921;-67
2021/10/12 01:28:55;;;;;;;;;;;;;;;5.91;58.88;96103.53;5019889;28;20465;-67
2021/10/12 01:31:24;;;;;;;;;;;;;;;5.88;58.20;96103.81;5020294;28;19921;-67
2021/10/12 01:33:49;;;;;;;;;;;;;;;6.18;57.83;96096.72;5020903;28;19973;-67
2021/10/12 01:36:15;;;;;;;;;;;;;;;6.27;57.35;96100.34;5018622;28;20310;-67
2021/10/12 01:38:40;;;;;;;;;;;;;;;6.03;58.04;96097.16;5020670;28;20707;-67
2021/10/12 01:41:05;;;;;;;;;;;;;;;6.62;56.60;96091.03;5020144;28;19920;-67
2021/10/12 01:43:31;;;;;;;;;;;;;;;6.23;57.46;96099.81;5020514;28;20368;-68
2021/10/12 01:45:59;;;;;;;;;;;;;;;6.04;58.29;96096.19;5019512;28;20415;-67
2021/10/12 01:48:25;;;;;;;;;;;;;;;5.86;59.02;96091.53;5010455;28;19995;-67
2021/10/12 01:50:50;;;;;;;;;;;;;;;6.03;58.50;96093.66;5020064;28;20378;-67
2021/10/12 01:53:15;;;;;;;;;;;;;;;5.94;58.72;96087.38;5020371;28;19936;-67
2021/10/12 01:55:40;;;;;;;;;;;;;;;5.92;59.01;96087.53;5019662;28;19921;-67
2021/10/12 01:58:06;;;;;;;;;;;;;;;5.99;58.99;96080.72;5020863;28;19971;-67
2021/10/12 02:00:31;;;;;;;;;;;;;;;5.77;59.26;96083.59;5019444;28;19947;-67
2021/10/12 02:02:56;;;;;;;;;;;;;;;5.49;60.32;96078.97;5018594;28;19917;-67
2021/10/12 02:05:21;;;;;;;;;;;;;;;5.92;58.44;96071.66;5020092;28;19917;-67
2021/10/12 02:07:47;;;;;;;;;;;;;;;6.13;58.32;96068.91;5019713;28;20023;-67
2021/10/12 02:10:12;;;;;;;;;;;;;;;5.24;60.20;96074.97;5020482;28;19963;-67
2021/10/12 02:12:37;;;;;;;;;;;;;;;5.54;59.74;96074.09;5019623;28;20275;-67
2021/10/12 02:15:02;;;;;;;;;;;;;;;5.41;60.16;96063.78;5010509;28;19920;-67
2021/10/12 02:17:28;;;;;;;;;;;;;;;5.72;58.83;96066.34;5018877;28;20031;-67
2021/10/12 02:19:53;;;;;;;;;;;;;;;5.80;59.07;96067.47;5012610;28;20371;-67
2021/10/12 02:22:18;;;;;;;;;;;;;;;5.42;60.09;96064.63;5016303;28;20004;-67
2021/10/12 02:24:43;;;;;;;;;;;;;;;5.58;59.57;96069.41;5016037;28;19933;-67
2021/10/12 02:27:09;;;;;;;;;;;;;;;6.25;57.82;96072.25;5015307;28;19983;-65
2021/10/12 02:29:34;;;;;;;;;;;;;;;5.97;58.43;96060.69;5016288;28;19929;-64
2021/10/12 02:31:59;;;;;;;;;;;;;;;5.06;61.76;96071.16;5016095;28;20348;-64
2021/10/12 02:34:24;;;;;;;;;;;;;;;4.79;61.91;96072.50;5007672;28;19964;-63
2021/10/12 02:36:50;;;;;;;;;;;;;;;5.22;60.42;96064.56;5011507;28;20211;-64
2021/10/12 02:39:15;;;;;;;;;;;;;;;5.33;60.51;96056.53;5015642;28;19921;-64
2021/10/12 02:41:40;;;;;;;;;;;;;;;5.13;61.48;96066.19;5006513;28;19925;-65
2021/10/12 02:44:05;;;;;;;;;;;;;;;4.97;62.47;96061.38;5019661;28;20416;-66
2021/10/12 02:46:31;;;;;;;;;;;;;;;5.14;61.28;96056.47;5019669;28;19929;-66
2021/10/12 02:48:56;;;;;;;;;;;;;;;5.07;61.16;96054.34;5018027;28;19928;-66
2021/10/12 02:51:21;;;;;;;;;;;;;;;5.19;61.32;96044.53;5000589;28;19925;-66
2021/10/12 02:53:46;;;;;;;;;;;;;;;4.77;62.49;96050.72;5018545;28;20039;-66
2021/10/12 02:56:12;;;;;;;;;;;;;;;4.85;62.79;96047.41;5019216;28;19975;-66
2021/10/12 02:58:37;;;;;;;;;;;;;;;5.19;61.02;96041.06;5019773;28;19923;-66
2021/10/12 03:01:02;;;;;;;;;;;;;;;4.92;62.25;96045.94;5019423;28;19921;-66
2021/10/12 03:03:28;;;;;;;;;;;;;;;4.92;61.93;96045.09;5019553;28;20003;-66
2021/10/12 03:05:53;;;;;;;;;;;;;;;5.56;59.79;96029.06;5018020;28;20480;-67
2021/10/12 03:08:18;;;;;;;;;;;;;;;5.12;61.35;96027.56;5019482;28;20012;-67
2021/10/12 03:10:43;;;;;;;;;;;;;;;4.70;62.50;96029.28;5015765;28;19952;-67
2021/10/12 03:13:09;;;;;;;;;;;;;;;5.08;61.62;96019.09;5017362;28;20397;-67
2021/10/12 03:15:34;;;;;;;;;;;;;;;5.09;61.75;96014.63;5019146;28;19971;-67
2021/10/12 03:17:59;;;;;;;;;;;;;;;4.87;62.01;96008.56;5019085;28;19933;-66
2021/10/12 03:20:25;;;;;;;;;;;;;;;5.04;62.00;96004.44;5018826;28;20440;-67
2021/10/12 03:22:50;;;;;;;;;;;;;;;5.07;61.19;96001.56;5018799;28;20024;-66
2021/10/12 03:25:15;;;;;;;;;;;;;;;4.71;61.75;96015.16;5017329;28;20168;-66
2021/10/12 03:27:40;;;;;;;;;;;;;;;5.33;60.83;95994.97;5018705;28;19921;-66
2021/10/12 03:30:06;;;;;;;;;;;;;;;5.09;60.82;95994.34;5015708;28;20513;-65
2021/10/12 03:32:31;;;;;;;;;;;;;;;4.51;63.52;95998.38;5017099;28;19925;-65
2021/10/12 03:34:57;;;;;;;;;;;;;;;4.94;61.99;96004.41;5018673;28;19986;-66
2021/10/12 03:37:22;;;;;;;;;;;;;;;5.05;60.90;95990.28;5018595;28;20294;-66
2021/10/12 03:39:47;;;;;;;;;;;;;;;4.86;61.72;95980.47;5019222;28;20004;-66
2021/10/12 03:42:12;;;;;;;;;;;;;;;4.60;62.48;95985.38;5019038;28;20089;-66
2021/10/12 03:44:38;;;;;;;;;;;;;;;4.66;62.86;95975.13;5020131;28;20639;-66
2021/10/12 03:47:03;;;;;;;;;;;;;;;5.25;61.47;95971.03;5021793;28;19921;-66
2021/10/12 03:49:28;;;;;;;;;;;;;;;5.44;59.43;95967.63;5021507;28;19921;-66
2021/10/12 03:51:53;;;;;;;;;;;;;;;4.63;62.52;95972.75;5021233;28;19948;-66
2021/10/12 03:54:19;;;;;;;;;;;;;;;5.03;61.78;95963.19;5017910;28;20024;-66
2021/10/12 03:56:44;;;;;;;;;;;;;;;4.46;63.43;95963.66;5019653;28;19933;-66
2021/10/12 03:59:09;;;;;;;;;;;;;;;4.61;62.72;95961.50;5022093;28;19928;-64
2021/10/12 04:01:34;;;;;;;;;;;;;;;4.03;64.60;95968.09;5020769;28;19921;-64
2021/10/12 04:04:00;;;;;;;;;;;;;;;4.16;64.35;95954.75;5021919;28;19921;-64
2021/10/12 04:06:25;;;;;;;;;;;;;;;3.97;65.35;95963.34;5021083;28;19925;-64
2021/10/12 04:08:51;;;;;;;;;;;;;;;3.59;67.29;95962.91;5021944;28;20318;-64
2021/10/12 04:11:16;;;;;;;;;;;;;;;3.66;66.48;95967.56;5021600;28;19921;-65
2021/10/12 04:13:41;;;;;;;;;;;;;;;3.05;68.76;95961.00;5020847;28;19924;-66
2021/10/12 04:16:06;;;;;;;;;;;;;;;3.14;68.99;95964.69;5020921;28;20017;-65
2021/10/12 04:18:32;;;;;;;;;;;;;;;3.00;70.06;95971.06;5021944;28;19929;-66
2021/10/12 04:20:57;;;;;;;;;;;;;;;2.84;70.57;95967.00;5021593;28;20395;-66
2021/10/12 04:23:22;;;;;;;;;;;;;;;3.25;68.81;95950.66;5021703;28;19917;-65
2021/10/12 04:25:47;;;;;;;;;;;;;;;3.80;66.42;95953.25;5021878;28;19921;-65
2021/10/12 04:28:13;;;;;;;;;;;;;;;3.58;67.19;95950.72;5021532;28;20234;-65
2021/10/12 04:30:39;;;;;;;;;;;;;;;2.97;69.58;95939.72;5022156;28;19917;-65
2021/10/12 04:33:04;;;;;;;;;;;;;;;3.26;68.15;95947.06;5021285;28;19940;-65
2021/10/12 04:35:29;;;;;;;;;;;;;;;2.94;69.09;95950.47;5021633;28;20159;-66
2021/10/12 04:37:54;;;;;;;;;;;;;;;2.70;69.95;95940.94;5021601;28;20433;-66
2021/10/12 04:40:20;;;;;;;;;;;;;;;2.67;70.46;95949.91;5020288;28;20028;-66
2021/10/12 04:42:45;;;;;;;;;;;;;;;2.60;69.16;95951.34;5021415;28;19921;-66
2021/10/12 04:45:11;;;;;;;;;;;;;;;2.48;69.79;95946.09;5019289;28;19940;-65
2021/10/12 04:47:37;;;;;;;;;;;;;;;2.37;70.60;95948.72;5021078;28;19917;-65
2021/10/12 04:50:02;;;;;;;;;;;;;;;2.65;69.46;95957.06;5020283;28;19913;-66
2021/10/12 04:52:27;;;;;;;;;;;;;;;2.68;69.35;95945.50;5021293;28;20267;-66
2021/10/12 04:54:53;;;;;;;;;;;;;;;2.78;69.65;95949.91;5020805;28;19916;-65
2021/10/12 04:57:18;;;;;;;;;;;;;;;3.08;68.96;95957.28;5019990;28;20273;-66
2021/10/12 04:59:43;;;;;;;;;;;;;;;3.98;64.70;95943.94;5021318;28;19917;-66
2021/10/12 05:02:08;;;;;;;;;;;;;;;4.26;64.28;95952.16;5021499;28;20224;-66
2021/10/12 05:04:34;;;;;;;;;;;;;;;3.84;64.40;95953.81;5020853;28;20007;-66
2021/10/12 05:06:59;;;;;;;;;;;;;;;4.07;64.28;95945.81;5020867;28;19970;-66
2021/10/12 05:09:24;;;;;;;;;;;;;;;3.66;65.82;95945.66;5021093;28;20302;-66
2021/10/12 05:11:49;;;;;;;;;;;;;;;3.98;64.88;95942.13;5020649;28;20066;-66
2021/10/12 05:14:17;;;;;;;;;;;;;;;4.03;64.74;95936.50;5021279;28;20404;-66
2021/10/12 05:16:42;;;;;;;;;;;;;;;4.14;63.82;95933.78;5020333;28;20099;-66
2021/10/12 05:19:08;;;;;;;;;;;;;;;4.22;63.29;95929.69;5020952;28;20395;-66
2021/10/12 05:21:33;;;;;;;;;;;;;;;3.16;66.54;95932.03;5021068;28;19932;-66
2021/10/12 05:23:58;;;;;;;;;;;;;;;3.29;66.71;95926.63;5020583;28;20012;-66
2021/10/12 05:26:23;;;;;;;;;;;;;;;2.74;69.37;95914.31;5020998;28;20028;-66
2021/10/12 05:28:49;;;;;;;;;;;;;;;3.02;68.09;95912.09;5020283;28;20011;-66
2021/10/12 05:31:14;;;;;;;;;;;;;;;3.10;68.58;95903.56;5018684;28;20443;-66
2021/10/12 05:33:40;;;;;;;;;;;;;;;3.16;67.56;95900.47;5020852;28;20015;-66
2021/10/12 05:36:05;;;;;;;;;;;;;;;3.32;67.14;95901.00;5020107;28;20446;-66
2021/10/12 05:38:30;;;;;;;;;;;;;;;3.10;67.31;95903.56;5020890;28;19917;-66
2021/10/12 05:40:55;;;;;;;;;;;;;;;3.09;67.21;95896.66;5020510;28;19925;-66
2021/10/12 05:43:21;;;;;;;;;;;;;;;2.81;68.56;95895.38;5020136;28;19928;-66
2021/10/12 05:45:46;;;;;;;;;;;;;;;3.26;66.81;95904.97;5019736;28;21928;-67
2021/10/12 05:48:12;;;;;;;;;;;;;;;3.79;65.23;95893.66;5018802;28;19924;-66
2021/10/12 05:50:40;;;;;;;;;;;;;;;3.67;65.89;95898.13;5020679;28;19921;-66
2021/10/12 06:00:54;;;;;;;;;;;;;;;3.31;67.09;95897.53;5020014;28;19939;-66
2021/10/12 06:03:21;;;;;;;;;;;;;;;3.39;67.53;95897.75;5018640;28;20371;-66
2021/10/12 06:05:46;;;;;;;;;;;;;;;2.92;68.57;95905.88;5020516;28;19974;-67
2021/10/12 06:08:11;;;;;;;;;;;;;;;3.47;67.20;95902.41;5020032;28;20356;-67
2021/10/12 06:10:38;;;;;;;;;;;;;;;3.96;65.91;95890.53;5020733;28;20358;-67
2021/10/12 06:13:08;;;;;;;;;;;;;;;3.68;66.30;95891.06;5019693;28;19917;-67
2021/10/12 06:15:33;;;;;;;;;;;;;;;3.03;69.42;95894.53;5020784;28;19944;-67
2021/10/12 06:17:59;;;;;;;;;;;;;;;3.10;68.75;95902.75;5024093;28;20171;-66
2021/10/12 06:20:24;;;;;;;;;;;;;;;2.87;69.81;95893.13;5022613;28;20323;-67
2021/10/12 06:22:49;;;;;;;;;;;;;;;3.40;68.40;95890.66;5018340;28;19921;-67
2021/10/12 06:25:14;;;;;;;;;;;;;;;3.00;69.04;95900.03;5023656;28;19925;-65
2021/10/12 06:27:40;;;;;;;;;;;;;;;3.14;69.55;95880.50;5023738;28;19920;-66
2021/10/12 06:30:05;;;;;;;;;;;;;;;2.63;70.96;95896.72;5023974;28;20442;-66
2021/10/12 06:32:30;;;;;;;;;;;;;;;2.30;72.49;95890.53;5019747;28;20293;-66
2021/10/12 06:34:56;;;;;;;;;;;;;;;2.07;73.62;95897.56;5023900;28;19952;-66
2021/10/12 06:37:21;;;;;;;;;;;;;;;2.05;74.14;95891.59;5018911;28;19931;-66
2021/10/12 06:39:46;;;;;;;;;;;;;;;1.90;74.58;95898.88;5021343;28;20000;-64
2021/10/12 06:42:11;;;;;;;;;;;;;;;2.11;74.10;95896.38;5019797;28;19928;-65
2021/10/12 06:44:37;;;;;;;;;;;;;;;1.85;75.14;95886.06;5019419;28;20413;-66
2021/10/12 06:47:02;;;;;;;;;;;;;;;1.88;74.04;95898.97;5019589;28;20195;-64
2021/10/12 06:49:27;;;;;;;;;;;;;;;1.82;74.79;95892.41;5019858;28;19974;-65
2021/10/12 06:51:53;;;;;;;;;;;;;;;2.13;73.15;95884.81;5007378;28;19993;-65
2021/10/12 06:54:18;;;;;;;;;;;;;;;2.10;73.36;95879.78;5014499;28;20332;-64
2021/10/12 06:56:43;;;;;;;;;;;;;;;1.92;74.06;95878.56;5018987;28;19933;-64
2021/10/12 06:59:08;;;;;;;;;;;;;;;2.23;73.01;95870.94;5018992;28;19947;-64
2021/10/12 07:01:34;;;;;;;;;;;;;;;2.93;69.75;95870.75;5019770;28;19924;-64
2021/10/12 07:03:59;;;;;;;;;;;;;;;2.57;71.40;95855.16;5018676;28;20240;-65
2021/10/12 07:06:24;;;;;;;;;;;;;;;2.62;70.58;95868.78;5011288;28;19933;-65
2021/10/12 07:08:50;;;;;;;;;;;;;;;2.36;71.31;95863.78;5016812;28;20378;-65
2021/10/12 07:11:15;;;;;;;;;;;;;;;2.38;72.18;95866.28;5015469;28;20239;-64
2021/10/12 07:13:40;;;;;;;;;;;;;;;2.17;72.41;95863.56;5018703;28;20086;-64
2021/10/12 07:16:05;;;;;;;;;;;;;;;2.24;73.72;95862.94;5018296;28;20344;-65
2021/10/12 07:18:31;;;;;;;;;;;;;;;2.11;73.18;95864.88;5019195;28;19965;-64
2021/10/12 07:20:56;;;;;;;;;;;;;;;2.10;73.06;95865.81;5018078;28;19974;-65
2021/10/12 07:23:21;;;;;;;;;;;;;;;2.48;72.20;95855.88;5018782;28;19921;-64
2021/10/12 07:25:48;;;;;;;;;;;;;;;2.77;71.28;95855.38;5018741;28;20515;-65
2021/10/12 07:28:13;;;;;;;;;;;;;;;3.04;69.76;95851.47;5017705;28;20440;-65
2021/10/12 07:30:39;;;;;;;;;;;;;;;3.13;69.55;95849.88;5018899;28;20141;-65
2021/10/12 07:33:04;;;;;;;;;;;;;;;3.48;68.49;95853.22;5027361;28;19921;-65
2021/10/12 07:35:29;;;;;;;;;;;;;;;3.12;69.32;95854.31;5016787;28;20012;-65
2021/10/12 07:37:57;;;;;;;;;;;;;;;3.17;68.96;95852.13;5018809;28;19948;-66
2021/10/12 07:40:22;;;;;;;;;;;;;;;3.33;68.38;95850.88;5018184;28;19983;-65
2021/10/12 07:42:48;;;;;;;;;;;;;;;3.73;67.74;95846.75;5018638;28;19952;-66
2021/10/12 07:45:13;;;;;;;;;;;;;;;3.80;67.32;95852.31;5017774;28;20240;-65
2021/10/12 07:47:39;;;;;;;;;;;;;;;3.62;67.55;95850.28;5016998;28;19928;-65
2021/10/12 07:50:04;;;;;;;;;;;;;;;3.92;66.95;95835.47;5018980;28;19925;-66
2021/10/12 07:52:31;;;;;;;;;;;;;;;3.80;67.86;95841.78;5018777;28;19921;-65
2021/10/12 07:55:25;;;;;;;;;;;;;;;3.59;68.31;95850.53;5014345;28;20299;-66
2021/10/12 07:57:45;;;;;;;;;;;;;;;3.41;69.90;95848.44;5018809;28;19916;-66
2021/10/12 08:00:10;;;;;;;;;;;;;;;3.84;67.89;95848.47;5013419;28;19978;-66
2021/10/12 08:02:36;;;;;;;;;;;;;;;3.55;68.71;95849.13;4995502;28;19926;-66
2021/10/12 08:05:01;;;;;;;;;;;;;;;3.53;68.03;95851.88;5009624;28;19936;-67
2021/10/12 08:07:26;;;;;;;;;;;;;;;3.68;68.28;95844.50;5018606;28;19921;-66
2021/10/12 08:09:51;;;;;;;;;;;;;;;3.19;70.75;95846.75;5020742;28;20321;-67
2021/10/12 08:12:17;;;;;;;;;;;;;;;2.96;71.33;95846.00;5019458;28;20007;-67
2021/10/12 08:14:46;;;;;;;;;;;;;;;3.34;70.27;95839.41;5019113;28;20457;-66
2021/10/12 08:17:11;;;;;;;;;;;;;;;3.35;70.42;95830.53;5019021;28;19937;-67
2021/10/12 08:19:37;;;;;;;;;;;;;;;3.60;69.32;95831.13;5019606;28;19928;-67
2021/10/12 08:22:02;;;;;;;;;;;;;;;3.60;69.31;95830.31;5015743;28;20225;-67
2021/10/12 08:24:27;;;;;;;;;;;;;;;3.58;68.72;95829.59;5019328;28;19925;-67
2021/10/12 08:26:52;;;;;;;;;;;;;;;3.23;70.91;95831.56;5018774;28;20310;-66
2021/10/12 08:29:18;;;;;;;;;;;;;;;3.48;69.93;95821.63;5017835;28;20370;-67
2021/10/12 08:31:43;;;;;;;;;;;;;;;3.87;69.00;95810.47;5019034;28;19936;-67
2021/10/12 08:34:08;;;;;;;;;;;;;;;4.00;68.38;95824.28;5019771;28;19921;-67
2021/10/12 08:36:33;;;;;;;;;;;;;;;3.52;69.88;95816.00;5019369;28;19928;-67
2021/10/12 08:38:59;;;;;;;;;;;;;;;3.71;68.88;95816.25;5017574;28;19921;-66
2021/10/12 08:41:25;;;;;;;;;;;;;;;3.34;70.78;95823.59;5019499;28;19928;-67
2021/10/12 08:43:54;;;;;;;;;;;;;;;3.26;70.19;95818.13;5008746;28;20362;-67
2021/10/12 08:46:23;;;;;;;;;;;;;;;3.34;70.34;95823.59;5018501;28;19987;-67
2021/10/12 08:48:48;;;;;;;;;;;;;;;3.12;71.38;95817.47;5018224;28;19921;-67
2021/10/12 08:51:13;;;;;;;;;;;;;;;2.97;71.68;95813.47;5017404;28;19928;-67
2021/10/12 08:53:38;;;;;;;;;;;;;;;3.49;70.15;95802.25;5017500;28;19917;-67
2021/10/12 08:56:04;;;;;;;;;;;;;;;3.20;71.08;95808.13;5016579;28;19929;-67
2021/10/12 08:58:29;;;;;;;;;;;;;;;3.23;71.48;95805.25;5018988;28;19917;-67
2021/10/12 09:01:04;;;;;;;;;;;;;;;3.07;71.34;95803.88;5018777;28;19975;-67
2021/10/12 09:03:49;;;;;;;;;;;;;;;3.55;70.30;95797.28;5017412;28;20424;-67
2021/10/12 09:06:14;;;;;;;;;;;;;;;3.56;70.36;95798.13;5017775;28;20534;-67
2021/10/12 09:08:39;;;;;;;;;;;;;;;3.50;70.08;95788.13;5017038;28;19921;-67
2021/10/12 09:11:19;;;;;;;;;;;;;;;3.70;70.41;95794.34;5018534;28;19959;-67
2021/10/12 09:13:45;;;;;;;;;;;;;;;3.50;70.91;95793.41;5016561;28;19920;-67
2021/10/12 09:16:11;;;;;;;;;;;;;;;3.91;68.58;95785.59;5017594;28;19925;-65
2021/10/12 09:18:52;;;;;;;;;;;;;;;3.74;69.47;95779.13;5019067;28;20131;-67
2021/10/12 09:21:20;;;;;;;;;;;;;;;3.86;69.07;95783.34;5016775;28;19921;-67
2021/10/12 09:23:46;;;;;;;;;;;;;;;3.97;69.39;95778.91;5018383;28;19932;-67
2021/10/12 09:26:18;;;;;;;;;;;;;;;4.03;68.14;95770.50;5017116;28;19921;-67
2021/10/12 09:28:43;;;;;;;;;;;;;;;3.68;69.46;95760.22;5016744;28;19952;-67
2021/10/12 09:31:08;;;;;;;;;;;;;;;3.60;70.09;95764.50;5017976;28;20449;-67
2021/10/12 09:33:44;;;;;;;;;;;;;;;3.27;71.69;95770.63;5018641;28;20302;-67
2021/10/12 09:36:11;;;;;;;;;;;;;;;3.12;71.98;95766.63;5018283;28;19921;-68
2021/10/12 09:38:45;;;;;;;;;;;;;;;3.01;72.99;95771.00;5017072;28;20231;-67
2021/10/12 09:41:11;;;;;;;;;;;;;;;3.35;72.28;95762.09;5012819;28;20003;-68
2021/10/12 09:43:36;;;;;;;;;;;;;;;3.18;73.45;95752.97;5013677;28;19932;-67
2021/10/12 09:46:01;;;;;;;;;;;;;;;3.54;72.20;95748.22;5017443;28;20049;-67
2021/10/12 09:48:30;;;;;;;;;;;;;;;3.68;71.34;95744.41;5014081;28;19970;-67
2021/10/12 09:51:14;;;;;;;;;;;;;;;3.99;69.84;95751.50;5017616;28;19960;-67
2021/10/12 09:53:41;;;;;;;;;;;;;;;4.30;68.79;95747.97;5010435;28;20416;-67
2021/10/12 09:56:07;;;;;;;;;;;;;;;3.72;70.69;95746.81;5014135;28;20491;-67
2021/10/12 09:58:33;;;;;;;;;;;;;;;3.84;70.23;95740.47;5017349;28;19943;-67
2021/10/12 10:01:05;;;;;;;;;;;;;;;3.77;70.59;95747.22;5017198;28;20393;-67
2021/10/12 10:03:30;;;;;;;;;;;;;;;3.59;71.10;95747.00;5015816;28;19929;-67
2021/10/12 10:05:59;;;;;;;;;;;;;;;3.70;70.55;95748.75;5017950;28;20346;-67
2021/10/12 10:08:26;;;;;;;;;;;;;;;3.05;73.32;95750.53;5015570;28;20369;-67
2021/10/12 10:10:51;;;;;;;;;;;;;;;3.03;73.25;95742.75;5016289;28;19929;-67
2021/10/12 10:13:18;;;;;;;;;;;;;;;2.93;74.10;95748.94;5018409;28;20352;-67
2021/10/12 10:15:44;;;;;;;;;;;;;;;3.22;73.27;95737.75;5017143;28;20200;-67
2021/10/12 10:18:09;;;;;;;;;;;;;;;3.27;73.42;95736.41;5016238;28;20279;-67
2021/10/12 10:20:35;;;;;;;;;;;;;;;3.23;73.32;95747.34;5014476;28;19975;-68
2021/10/12 10:23:00;;;;;;;;;;;;;;;3.05;74.19;95747.91;5015524;28;19924;-64
2021/10/12 10:25:34;;;;;;;;;;;;;;;3.20;73.58;95737.06;5017719;28;20394;-64
2021/10/12 10:28:14;;;;;;;;;;;;;;;3.29;72.74;95731.88;5017296;28;19921;-65
2021/10/12 10:30:42;;;;;;;;;;;;;;;3.37;72.59;95725.13;5017235;28;20213;-65
2021/10/12 10:33:07;;;;;;;;;;;;;;;3.10;73.24;95737.00;5020933;28;19921;-64
2021/10/12 10:35:34;;;;;;;;;;;;;;;3.36;73.08;95726.06;5015468;28;20037;-65
2021/10/12 10:38:18;;;;;;;;;;;;;;;3.78;70.99;95718.13;5017617;28;19917;-64
2021/10/12 10:40:43;;;;;;;;;;;;;;;3.84;70.90;95719.41;5016945;28;20471;-67
2021/10/12 10:43:08;;;;;;;;;;;;;;;4.06;70.37;95720.19;5017148;28;20028;-67
2021/10/12 10:45:43;;;;;;;;;;;;;;;4.04;70.54;95714.19;5017304;28;19994;-67
2021/10/12 10:48:09;;;;;;;;;;;;;;;4.25;69.83;95706.19;5017469;28;20051;-68
2021/10/12 10:50:34;;;;;;;;;;;;;;;4.23;70.02;95704.66;5016196;28;20026;-68
2021/10/12 10:53:00;;;;;;;;;;;;;;;4.42;69.04;95709.97;5017120;28;20796;-68
2021/10/12 10:55:26;;;;;;;;;;;;;;;4.44;68.72;95701.94;5015010;28;19921;-67
2021/10/12 10:58:01;;;;;;;;;;;;;;;3.96;69.64;95706.97;5017470;28;19921;-67
2021/10/12 11:00:27;;;;;;;;;;;;;;;4.50;67.96;95695.28;5016282;28;20578;-67
2021/10/12 11:02:52;;;;;;;;;;;;;;;4.53;68.29;95689.72;5020722;28;19967;-67
2021/10/12 11:05:36;;;;;;;;;;;;;;;4.49;69.05;95694.44;5020307;28;19932;-68
2021/10/12 11:08:18;;;;;;;;;;;;;;;4.27;69.13;95690.25;5020559;28;20164;-67
2021/10/12 11:10:44;;;;;;;;;;;;;;;4.66;68.24;95687.63;5003061;28;19929;-67
2021/10/12 11:13:09;;;;;;;;;;;;;;;4.90;66.84;95689.00;5019777;28;20689;-67
2021/10/12 11:15:50;;;;;;;;;;;;;;;5.03;67.03;95674.72;5002174;28;19925;-68
2021/10/12 11:18:15;;;;;;;;;;;;;;;5.12;66.33;95667.75;5019632;28;20429;-68
2021/10/12 11:20:51;;;;;;;;;;;;;;;5.12;66.66;95668.59;5019406;28;19974;-67
2021/10/12 11:23:23;;;;;;;;;;;;;;;4.65;67.32;95667.53;5019663;28;19920;-67
2021/10/12 11:25:53;;;;;;;;;;;;;;;5.04;67.46;95663.19;5020857;28;20274;-68
2021/10/12 11:28:18;;;;;;;;;;;;;;;5.33;66.13;95659.66;5020844;28;19921;-68
2021/10/12 11:30:43;;;;;;;;;;;;;;;5.07;66.99;95660.28;5019423;28;19928;-67
2021/10/12 11:33:08;;;;;;;;;;;;;;;5.54;65.05;95653.34;5020862;28;20039;-67
2021/10/12 11:35:35;;;;;;;;;;;;;;;5.58;64.77;95652.06;5020166;28;19963;-67
2021/10/12 11:38:01;;;;;;;;;;;;;;;5.67;64.92;95645.06;5018995;28;19994;-68
2021/10/12 11:40:26;;;;;;;;;;;;;;;5.03;67.11;95643.06;5009560;28;19933;-67
2021/10/12 11:43:01;;;;;;;;;;;;;;;4.90;67.30;95638.88;5019903;28;19921;-67
2021/10/12 11:45:27;;;;;;;;;;;;;;;4.30;68.79;95642.53;5020458;28;19972;-67
2021/10/12 11:47:52;;;;;;;;;;;;;;;4.73;68.35;95645.72;5018610;28;20014;-67
2021/10/12 11:50:18;;;;;;;;;;;;;;;4.52;69.46;95630.88;5018831;28;19917;-67
2021/10/12 11:52:47;;;;;;;;;;;;;;;4.91;69.15;95629.19;5017876;28;19921;-68
2021/10/12 11:55:13;;;;;;;;;;;;;;;4.65;68.92;95633.22;5018050;28;19921;-67
2021/10/12 11:57:40;;;;;;;;;;;;;;;4.58;69.79;95621.59;5020193;28;20306;-68
2021/10/12 12:00:05;;;;;;;;;;;;;;;4.12;71.22;95630.03;5012944;28;19922;-67
2021/10/12 12:02:31;;;;;;;;;;;;;;;4.03;71.36;95630.84;5018810;28;19925;-67
2021/10/12 12:04:58;;;;;;;;;;;;;;;4.13;72.25;95618.53;5018611;28;19971;-67
2021/10/12 12:07:23;;;;;;;;;;;;;;;4.81;70.03;95619.47;5019518;28;20012;-67
2021/10/12 12:09:48;;;;;;;;;;;;;;;4.41;70.02;95616.03;5018632;28;19924;-67
2021/10/12 12:12:14;;;;;;;;;;;;;;;3.94;71.66;95614.06;5019291;28;20642;-67
2021/10/12 12:14:40;;;;;;;;;;;;;;;4.40;70.56;95616.19;5019437;28;20285;-67
2021/10/12 12:17:05;;;;;;;;;;;;;;;4.25;71.66;95603.41;5007574;28;19936;-67
2021/10/12 12:19:31;;;;;;;;;;;;;;;3.85;72.07;95607.81;5019124;28;20445;-67
2021/10/12 12:21:56;;;;;;;;;;;;;;;3.97;71.49;95595.34;5019493;28;19979;-67
2021/10/12 12:24:22;;;;;;;;;;;;;;;4.36;70.68;95597.19;5019457;28;20302;-68
2021/10/12 12:26:47;;;;;;;;;;;;;;;4.67;70.45;95591.75;5017873;28;20342;-68
2021/10/12 12:29:18;;;;;;;;;;;;;;;4.47;69.77;95596.19;5018671;28;20553;-67
2021/10/12 12:31:47;;;;;;;;;;;;;;;4.65;69.27;95590.19;5017558;28;19928;-67
2021/10/12 12:34:17;;;;;;;;;;;;;;;4.62;70.31;95593.13;5021288;28;19921;-68
2021/10/12 12:36:42;;;;;;;;;;;;;;;4.62;69.85;95580.75;5020498;28;20004;-68
2021/10/12 12:39:08;;;;;;;;;;;;;;;5.06;67.84;95574.16;5022602;28;20445;-68
2021/10/12 12:41:37;;;;;;;;;;;;;;;4.64;70.25;95581.47;5022262;28;19921;-68
2021/10/12 12:44:04;;;;;;;;;;;;;;;4.51;69.71;95583.56;5022715;28;19972;-68
2021/10/12 12:46:29;;;;;;;;;;;;;;;4.42;70.22;95567.63;5022607;28;19976;-67
2021/10/12 12:49:11;;;;;;;;;;;;;;;4.56;69.78;95573.44;5022225;28;20010;-68
2021/10/12 12:51:37;;;;;;;;;;;;;;;4.03;71.86;95571.09;5004250;28;19961;-68
2021/10/12 12:54:02;;;;;;;;;;;;;;;3.77;72.38;95570.78;5020363;28;19918;-67
2021/10/12 12:56:32;;;;;;;;;;;;;;;3.93;71.58;95557.94;5020848;28;20364;-67
2021/10/12 12:59:07;;;;;;;;;;;;;;;3.86;72.77;95563.88;5015119;28;19914;-67
2021/10/12 13:01:32;;;;;;;;;;;;;;;4.12;72.18;95550.16;5021126;28;19917;-68